Denver, CO (80205)

8:25 PM MDT on April 29, 2017 (GMT -0600)
MDMNC2 | | Change Station
Active Advisory: Freeze Warning

Elev 5303 ft 39.75 °N, 104.95 °W | Updated 1 hour ago

Snow
Snow
31.0 °F
Feels Like 27 °F
N
4.0
Wind Variable Wind from NNE
Gusts 15.0 mph

Today
High -- | Low -- °F
--% Chance of Precip.
Yesterday
High -- | Low -- °F
Precip. -- in
Pressure 30.26 in
Visibility 3.0 miles
Clouds Mostly Cloudy 1200 ft
Overcast 2500 ft
Windchill 27 °F
Dew Point 28 °F
Humidity 88%
Rainfall 0.60 in
Snow Depth Not available.
6:02 AM 7:52 PM
Waxing Crescent, 18% visible
METAR KBKF 300158Z 35010KT 3SM -SN BR BKN012 OVC025 M02/M02 A3019 RMK AO2A SLP246 P0000 T10221025
Pressure 30.26 in
Visibility 3.0 miles
Clouds Mostly Cloudy 1200 ft
Overcast 2500 ft
Windchill 27 °F
Dew Point 28 °F
Humidity 88%
Rainfall 0.60 in
Snow Depth Not available.
6:02 AM 7:52 PM
Waxing Crescent, 18% visible
METAR KBKF 300158Z 35010KT 3SM -SN BR BKN012 OVC025 M02/M02 A3019 RMK AO2A SLP246 P0000 T10221025

Get Your Daily Forecast Email!

Thanks for signing up!

Be on the lookout for a verification email in your inbox.

You'll start receiving severe weather alerts in your inbox..

×

10-Day Weather Forecast

Almanac

Astronomy

Apr. 29, 2017 Rise Set
Actual Time
Civil Twilight
Nautical Twilight
Astronomical Twilight
Moon
Length of Visible Light
Length of Day
Tomorrow will be .
, % of the Moon is Illuminated

Today's Extremes

State Highs State Lows

Community

WunderPhotos

WunderBlog® & News

Nearby

Air Quality

  Air Quality AQ Index Pollutant
Not available.

Snow Depth

Station Depth Elevation

Earthquake Activity

City Distance Mag. Time & Date
Minimum magnitude displayed is 2.5.

Coastal Water Temperatures

Place Temperature

Stations

Nearby Weather Stations

Station Location Temp. Windchill Dew Point Humidity Wind Precip. Elev Updated Type
                   

Watches & Warnings

Freeze Warning
Issued: 3:25 PM MDT Apr. 29, 2017 – National Weather Service

... Freeze warning in effect from 10 PM this evening to 8 am MDT
Sunday...

The National Weather Service in Denver has issued a freeze
warning, which is in effect from 10 PM this evening to 8 am MDT
Sunday.

* Temperature... lows in the mid to upper 20s in most areas.
Coldest spots near 20 degrees, mainly low lying areas north of
Denver.

* Impacts... damage to irrigation systems and tender vegetation.

Precautionary/preparedness actions...

Residents should drain sprinkler systems, unhook hoses, and
protect cold-sensitive vegetation.



Gimmestad